Atlantic, Maine
Current Conditions -  °F | °C
As of 7:55 PM on Tuesday 21 Oct 2014 (Local Time) from KBHB Reporting Station
Overcast Overcast  
Wind Chill: 52°   Ceiling: 700
Heat Index: 52°   Visibility: 10mi
Dew Point: 52°   Wind: 10mph
Humidity: 100%   Direction: 60°ENE
Pressure: 30.11"   Gusts: 17mph
Location:  44.1716°N, 68.4245°W
Report Text: KBHB 212355Z AUTO 06009G15KT 10SM BKN007 OVC013 11/11 A3011 RMK AO1 P0002 60011 10120 20110 401200040 52007
Loading
Personal Weather Stations






























Interactive Weather Map
Tropical Storm Tracking
New forecast layout! Learn more

10-Day Weather Forecast

Advertisements
Track Severe Weather on mobile